Time;durP1;ratioP1;P1;durP2;ratioP2;P2;SDS_P1;SDS_P2;PMS_P1;PMS_P2;Temp;Humidity;BMP_temperature;BMP_pressure;BME280_temperature;BME280_humidity;BME280_pressure;Samples;Min_cycle;Max_cycle;Signal;HPM_P1;HPM_P2
2022/03/24 00:00:05;;;;;;;9.65;4.28;;;;;;;10.37;26.43;99675.09;4379964;32;20251;-71
2022/03/24 00:02:38;;;;;;;;;;;;;;;10.30;26.60;99674.66;4380268;32;20087;-71
2022/03/24 00:05:06;;;;;;;8.05;3.80;;;;;;;10.31;26.67;99672.91;4380010;32;19978;-71
2022/03/24 00:07:35;;;;;;;12.27;4.20;;;;;;;10.16;26.94;99668.78;4380000;32;20121;-71
2022/03/24 00:10:03;;;;;;;8.70;3.78;;;;;;;10.10;26.99;99673.53;4379977;32;20224;-71
2022/03/24 00:12:30;;;;;;;10.38;4.35;;;;;;;10.19;27.06;99668.53;4379931;32;20455;-71
2022/03/24 00:14:57;;;;;;;8.43;4.47;;;;;;;10.54;26.71;99662.53;4379719;32;20106;-71
2022/03/24 00:17:24;;;;;;;9.52;4.40;;;;;;;10.55;26.54;99664.19;4374129;32;20099;-71
2022/03/24 00:19:52;;;;;;;6.05;4.37;;;;;;;10.37;26.75;99667.25;4380076;32;20099;-71
2022/03/24 00:22:20;;;;;;;8.90;4.45;;;;;;;10.37;26.80;99661.16;4379802;32;20086;-71
2022/03/24 00:24:50;;;;;;;8.57;4.32;;;;;;;10.38;26.72;99655.78;4379852;32;20152;-71
2022/03/24 00:27:17;;;;;;;11.32;4.90;;;;;;;10.39;26.79;99649.63;4379838;32;20156;-71
2022/03/24 00:29:47;;;;;;;10.38;4.25;;;;;;;10.43;26.73;99642.34;4379795;32;20142;-71
2022/03/24 00:32:14;;;;;;;6.50;4.43;;;;;;;10.37;26.81;99645.44;4379959;32;20070;-71
2022/03/24 00:34:42;;;;;;;9.13;4.03;;;;;;;10.28;26.85;99639.91;4379837;32;20082;-71
2022/03/24 00:37:09;;;;;;;13.93;4.40;;;;;;;10.37;26.79;99634.97;4379806;32;20094;-71
2022/03/24 00:39:40;;;;;;;9.63;4.40;;;;;;;10.52;26.72;99635.59;4379656;32;20182;-71
2022/03/24 00:42:09;;;;;;;8.75;4.85;;;;;;;10.37;26.67;99624.47;4379630;32;20091;-71
2022/03/24 00:44:44;;;;;;;8.35;4.75;;;;;;;10.36;26.80;99626.28;4379596;32;20169;-71
2022/03/24 00:47:15;;;;;;;10.80;4.35;;;;;;;10.42;26.69;99625.81;4379768;32;20109;-71
2022/03/24 00:49:47;;;;;;;8.38;4.82;;;;;;;10.40;26.83;99619.87;4366860;32;20087;-71
2022/03/24 00:52:17;;;;;;;8.90;4.23;;;;;;;10.39;26.78;99617.38;4379304;32;20082;-71
2022/03/24 00:54:44;;;;;;;6.25;3.90;;;;;;;10.28;27.00;99612.91;4380005;32;20198;-71
2022/03/24 00:57:11;;;;;;;8.18;4.47;;;;;;;10.12;27.22;99621.03;4379520;32;20094;-71
2022/03/24 00:59:40;;;;;;;9.75;4.60;;;;;;;10.13;27.29;99617.50;4379516;32;20149;-71
2022/03/24 01:02:09;;;;;;;6.60;4.22;;;;;;;10.12;27.21;99613.19;4379447;32;20129;-71
2022/03/24 01:04:38;;;;;;;5.50;3.92;;;;;;;10.13;27.36;99607.00;4379516;32;20070;-71
2022/03/24 01:07:05;;;;;;;9.32;4.87;;;;;;;10.22;27.25;99606.31;4379425;32;20099;-71
2022/03/24 01:09:32;;;;;;;9.43;4.87;;;;;;;10.13;27.30;99601.78;4379531;32;20103;-71
2022/03/24 01:12:02;;;;;;;7.57;4.60;;;;;;;10.10;27.20;99597.59;4379426;32;20523;-71
2022/03/24 01:14:32;;;;;;;15.07;5.10;;;;;;;10.08;27.29;99594.25;4379418;32;20090;-71
2022/03/24 01:17:01;;;;;;;8.55;4.20;;;;;;;10.16;27.25;99592.84;4379507;32;20087;-71
2022/03/24 01:19:28;;;;;;;9.95;4.55;;;;;;;10.02;27.39;99589.47;4379477;32;20598;-71
2022/03/24 01:21:55;;;;;;;6.87;4.65;;;;;;;9.77;27.78;99591.25;4379343;32;20136;-71
2022/03/24 01:24:22;;;;;;;15.98;4.72;;;;;;;9.80;27.81;99589.37;4379542;32;20090;-70
2022/03/24 01:26:49;;;;;;;7.20;4.65;;;;;;;9.70;27.91;99582.19;4379499;32;20122;-71
2022/03/24 01:29:19;;;;;;;12.15;5.32;;;;;;;9.69;27.87;99577.91;4379623;32;20094;-71
2022/03/24 01:31:46;;;;;;;12.98;4.50;;;;;;;9.51;28.20;99585.31;4379528;32;20200;-71
2022/03/24 01:34:13;;;;;;;12.57;5.28;;;;;;;9.24;28.58;99594.16;4379343;32;20107;-71
2022/03/24 01:36:42;;;;;;;14.10;4.40;;;;;;;9.06;28.84;99585.00;4379291;32;20466;-71
2022/03/24 01:39:10;;;;;;;11.73;5.37;;;;;;;9.02;29.13;99584.41;4379305;32;20111;-70
2022/03/24 01:41:40;;;;;;;8.43;4.60;;;;;;;8.81;29.40;99584.09;4379407;32;20153;-71
2022/03/24 01:44:27;;;;;;;17.55;5.47;;;;;;;8.97;29.27;99581.25;4379209;32;20083;-70
2022/03/24 01:46:56;;;;;;;8.45;5.03;;;;;;;9.22;28.89;99584.78;4379477;32;20163;-70
2022/03/24 01:49:24;;;;;;;14.93;5.15;;;;;;;9.39;28.44;99581.78;4379320;32;20200;-70
2022/03/24 01:51:51;;;;;;;8.73;5.22;;;;;;;9.38;28.51;99574.06;4379337;32;20082;-70
2022/03/24 01:54:21;;;;;;;14.10;5.10;;;;;;;9.33;28.70;99563.09;4379498;32;20075;-70
2022/03/24 01:56:51;;;;;;;11.55;5.53;;;;;;;9.33;28.55;99570.94;4379326;32;20129;-70
2022/03/24 01:59:19;;;;;;;17.33;5.93;;;;;;;9.22;28.67;99574.31;4379127;32;20107;-70
2022/03/24 02:01:48;;;;;;;10.85;4.78;;;;;;;9.36;28.61;99565.50;4379087;32;20152;-70
2022/03/24 02:04:17;;;;;;;9.70;5.35;;;;;;;9.46;28.28;99560.41;4378107;32;20361;-70
2022/03/24 02:06:46;;;;;;;9.05;5.07;;;;;;;9.49;28.22;99565.44;4379384;32;20110;-70
2022/03/24 02:09:13;;;;;;;11.35;4.70;;;;;;;9.44;28.41;99554.47;4379310;32;20102;-70
2022/03/24 02:11:41;;;;;;;10.43;4.75;;;;;;;9.51;27.98;99561.78;4365713;32;20109;-71
2022/03/24 02:14:08;;;;;;;13.98;5.40;;;;;;;9.50;28.12;99554.03;4379026;32;20113;-70
2022/03/24 02:16:39;;;;;;;8.82;4.82;;;;;;;9.49;28.16;99557.59;4379276;32;20121;-70
2022/03/24 02:19:21;;;;;;;13.85;4.68;;;;;;;9.55;27.90;99550.16;4379041;32;20091;-70
2022/03/24 02:21:50;;;;;;;13.40;5.18;;;;;;;9.50;28.06;99543.56;4378896;32;20157;-70
2022/03/24 02:24:20;;;;;;;8.98;4.70;;;;;;;9.58;28.00;99544.69;4378900;32;20113;-70
2022/03/24 02:26:48;;;;;;;13.93;4.78;;;;;;;9.57;27.98;99542.19;4378860;32;20137;-70
2022/03/24 02:29:17;;;;;;;10.10;5.25;;;;;;;9.43;28.11;99540.53;4378902;32;20546;-70
2022/03/24 02:31:50;;;;;;;8.80;5.60;;;;;;;9.40;28.02;99541.63;4378871;32;20564;-70
2022/03/24 02:34:37;;;;;;;11.05;5.57;;;;;;;9.24;28.33;99541.03;4378936;32;20276;-70
2022/03/24 02:37:08;;;;;;;14.60;5.20;;;;;;;9.21;28.43;99542.09;4378903;32;20480;-70
2022/03/24 02:39:36;;;;;;;9.65;4.85;;;;;;;9.20;28.55;99536.97;4378772;32;20378;-70
2022/03/24 02:42:04;;;;;;;11.05;4.68;;;;;;;9.21;28.45;99539.47;4378906;32;20086;-70
2022/03/24 02:44:32;;;;;;;10.05;5.35;;;;;;;9.15;28.73;99539.91;4378541;32;20145;-70
2022/03/24 02:47:01;;;;;;;7.57;4.80;;;;;;;9.17;28.70;99545.03;4378615;32;20166;-70
2022/03/24 02:49:30;;;;;;;8.60;4.70;;;;;;;9.15;28.80;99536.47;4378496;32;20099;-70
2022/03/24 02:51:59;;;;;;;16.05;4.53;;;;;;;9.21;28.74;99538.66;4378349;32;20263;-70
2022/03/24 02:54:28;;;;;;;10.23;5.55;;;;;;;8.96;29.04;99543.00;4378502;32;20113;-70
2022/03/24 02:56:56;;;;;;;10.30;5.07;;;;;;;8.95;29.25;99543.09;4378532;32;20504;-70
2022/03/24 02:59:24;;;;;;;10.43;5.75;;;;;;;8.70;29.47;99536.97;4378401;32;20111;-70
2022/03/24 03:01:56;;;;;;;10.63;5.03;;;;;;;8.78;29.50;99544.28;4378291;32;20105;-71
2022/03/24 03:04:23;;;;;;;8.88;5.53;;;;;;;8.67;29.54;99538.00;4365074;32;20690;-71
2022/03/24 03:06:51;;;;;;;12.27;4.93;;;;;;;8.63;29.58;99541.78;4378328;32;20095;-70
2022/03/24 03:09:18;;;;;;;12.63;4.65;;;;;;;8.79;29.29;99541.56;4378282;32;20476;-70
2022/03/24 03:11:46;;;;;;;10.98;4.87;;;;;;;8.84;29.29;99544.69;4378270;32;20448;-71
2022/03/24 03:14:17;;;;;;;15.38;5.35;;;;;;;8.96;29.09;99539.53;4378195;32;20436;-71
2022/03/24 03:16:45;;;;;;;17.15;5.20;;;;;;;8.90;29.16;99538.19;4379767;32;20079;-71
2022/03/24 03:19:13;;;;;;;12.00;5.35;;;;;;;8.88;29.23;99540.91;4380388;32;20125;-71
2022/03/24 03:21:41;;;;;;;9.38;5.95;;;;;;;8.91;29.30;99531.19;4380269;32;20091;-71
2022/03/24 03:24:10;;;;;;;11.32;5.40;;;;;;;8.92;29.28;99531.09;4380219;32;20098;-71
2022/03/24 03:26:38;;;;;;;8.95;5.28;;;;;;;9.01;29.26;99532.22;4380141;32;20240;-70
2022/03/24 03:29:06;;;;;;;11.10;5.82;;;;;;;8.96;29.18;99531.69;4380540;32;20103;-70
2022/03/24 03:31:34;;;;;;;10.80;5.53;;;;;;;9.15;28.82;99521.63;4380330;32;20117;-71
2022/03/24 03:34:03;;;;;;;10.88;5.47;;;;;;;9.17;28.76;99524.12;4380362;32;20106;-71
2022/03/24 03:36:31;;;;;;;12.93;5.50;;;;;;;9.28;28.51;99515.50;4380112;32;20102;-71
2022/03/24 03:38:59;;;;;;;11.98;6.22;;;;;;;9.41;28.16;99519.72;4380485;32;20095;-70
2022/03/24 03:41:28;;;;;;;8.57;5.00;;;;;;;9.62;27.73;99526.16;4379828;32;20156;-70
2022/03/24 03:43:55;;;;;;;15.45;5.75;;;;;;;9.87;27.28;99518.16;4380217;32;20105;-70
2022/03/24 03:46:24;;;;;;;12.13;5.93;;;;;;;9.92;27.23;99516.03;4380041;32;20170;-70
2022/03/24 03:48:52;;;;;;;10.45;5.75;;;;;;;9.87;27.18;99515.53;4380220;32;20086;-70
2022/03/24 03:51:19;;;;;;;9.85;5.72;;;;;;;9.96;26.93;99514.00;4379788;32;20384;-70
2022/03/24 03:53:47;;;;;;;11.88;6.40;;;;;;;9.95;26.98;99515.78;4380010;32;20083;-71
2022/03/24 03:56:14;;;;;;;9.00;5.70;;;;;;;9.91;26.98;99519.59;4380034;32;20122;-71
2022/03/24 03:58:41;;;;;;;14.05;6.00;;;;;;;9.96;26.77;99511.38;4380016;32;20487;-71
2022/03/24 04:01:08;;;;;;;14.95;6.90;;;;;;;9.85;26.87;99514.81;4379848;32;20090;-70
2022/03/24 04:03:38;;;;;;;13.93;6.65;;;;;;;9.88;26.85;99513.75;4379947;32;20091;-70
2022/03/24 04:06:10;;;;;;;11.20;6.10;;;;;;;9.93;26.80;99515.09;4379905;32;20437;-70
2022/03/24 04:08:40;;;;;;;16.62;6.03;;;;;;;9.77;26.95;99518.00;4380019;32;20495;-70
2022/03/24 04:11:08;;;;;;;10.02;5.45;;;;;;;9.84;26.96;99513.16;4379890;32;20109;-71
2022/03/24 04:13:39;;;;;;;11.18;5.80;;;;;;;9.80;27.00;99516.13;4379939;32;20140;-71
2022/03/24 04:16:11;;;;;;;9.88;5.93;;;;;;;9.51;27.49;99521.72;4379985;32;20099;-71
2022/03/24 04:18:40;;;;;;;14.20;6.25;;;;;;;9.50;27.50;99520.03;4380042;32;20742;-71
2022/03/24 04:21:08;;;;;;;17.15;6.40;;;;;;;9.49;27.49;99518.34;4379855;32;20479;-70
2022/03/24 04:23:37;;;;;;;11.95;6.07;;;;;;;9.51;27.46;99521.72;4379783;32;20087;-70
2022/03/24 04:26:05;;;;;;;9.40;5.90;;;;;;;9.53;27.42;99517.19;4379968;32;20467;-71
2022/03/24 04:28:32;;;;;;;13.07;6.40;;;;;;;9.57;27.12;99509.00;4379191;32;20090;-70
2022/03/24 04:31:00;;;;;;;15.27;6.30;;;;;;;9.52;27.21;99508.53;4379732;32;20777;-71
2022/03/24 04:33:27;;;;;;;13.98;7.43;;;;;;;9.49;27.16;99507.88;4379819;32;20418;-71
2022/03/24 04:35:54;;;;;;;12.50;6.62;;;;;;;9.45;27.13;99509.03;4379741;32;20095;-71
2022/03/24 04:38:21;;;;;;;12.15;6.62;;;;;;;9.43;27.11;99501.31;4378642;32;20102;-71
2022/03/24 04:40:48;;;;;;;20.65;7.03;;;;;;;9.51;27.04;99495.56;4379740;32;20144;-71
2022/03/24 04:43:16;;;;;;;12.93;6.70;;;;;;;9.33;27.21;99500.34;4379818;32;20429;-71
2022/03/24 04:45:46;;;;;;;11.02;6.32;;;;;;;9.30;27.23;99504.00;4380072;32;20079;-71
2022/03/24 04:48:14;;;;;;;17.65;7.12;;;;;;;9.19;27.39;99512.63;4379679;32;20110;-71
2022/03/24 04:50:41;;;;;;;10.18;5.90;;;;;;;9.20;27.25;99513.44;4379479;32;20113;-71
2022/03/24 04:53:14;;;;;;;11.60;6.57;;;;;;;9.18;27.24;99508.31;4379620;32;20095;-71
2022/03/24 04:55:42;;;;;;;16.75;6.57;;;;;;;9.03;27.59;99514.66;4379582;32;20117;-71
2022/03/24 04:58:11;;;;;;;16.58;7.05;;;;;;;9.02;27.63;99515.59;4379725;32;20120;-71
2022/03/24 05:00:38;;;;;;;10.88;6.12;;;;;;;9.15;27.60;99507.72;4379524;32;20121;-71
2022/03/24 05:03:05;;;;;;;14.45;7.22;;;;;;;9.09;27.76;99508.16;4379600;32;20141;-71
2022/03/24 05:05:32;;;;;;;12.75;7.07;;;;;;;8.95;28.00;99512.59;4379547;32;20114;-71
2022/03/24 05:11:30;;;;;;;12.68;6.80;;;;;;;9.06;28.25;99507.41;4379677;32;20109;-71
2022/03/24 05:13:57;;;;;;;13.55;6.72;;;;;;;9.21;27.93;99512.50;4379472;32;20106;-70
2022/03/24 05:16:25;;;;;;;14.75;7.43;;;;;;;9.20;28.05;99510.81;4379661;32;20114;-71
2022/03/24 05:18:52;;;;;;;11.20;6.15;;;;;;;9.23;28.17;99505.37;4379654;32;20160;-70
2022/03/24 05:21:20;;;;;;;12.00;6.65;;;;;;;9.28;28.07;99511.13;4379097;32;20149;-70
2022/03/24 05:23:47;;;;;;;12.50;7.32;;;;;;;9.27;28.15;99512.06;4379490;32;20102;-71
2022/03/24 05:26:16;;;;;;;13.85;7.12;;;;;;;9.26;28.31;99513.00;4379430;32;20161;-71
2022/03/24 05:28:44;;;;;;;12.90;7.18;;;;;;;9.22;28.26;99511.56;4379129;32;20099;-70
2022/03/24 05:31:11;;;;;;;15.73;6.05;;;;;;;9.34;28.20;99518.53;4379350;32;20233;-71
2022/03/24 05:33:38;;;;;;;12.55;7.25;;;;;;;9.64;27.85;99506.75;4379284;32;20337;-71
2022/03/24 05:36:06;;;;;;;14.98;7.37;;;;;;;9.77;27.62;99507.53;4379062;32;20131;-70
2022/03/24 05:38:33;;;;;;;14.20;6.90;;;;;;;9.83;27.63;99511.47;4379451;32;20095;-70
2022/03/24 05:41:01;;;;;;;11.05;6.82;;;;;;;9.97;27.52;99513.06;4379278;32;20086;-70
2022/03/24 05:43:29;;;;;;;13.73;6.90;;;;;;;9.95;27.70;99517.59;4379035;32;20090;-70
2022/03/24 05:45:56;;;;;;;17.45;6.78;;;;;;;10.35;27.08;99509.34;4379027;32;20175;-69
2022/03/24 05:48:24;;;;;;;16.65;6.68;;;;;;;10.47;26.76;99513.66;4378946;32;20106;-70
2022/03/24 05:50:53;;;;;;;12.10;6.82;;;;;;;10.74;26.32;99512.47;4379053;32;20392;-69
2022/03/24 05:53:20;;;;;;;13.50;7.12;;;;;;;10.64;26.48;99512.38;4379098;32;20082;-70
2022/03/24 05:55:48;;;;;;;11.98;6.37;;;;;;;10.81;26.45;99513.66;4378949;32;20084;-71
2022/03/24 05:58:17;;;;;;;13.60;7.18;;;;;;;11.05;26.25;99510.03;4378915;32;20151;-70
2022/03/24 06:00:44;;;;;;;10.63;6.60;;;;;;;11.38;25.83;99510.94;4378763;32;20625;-70
2022/03/24 06:03:15;;;;;;;16.95;7.12;;;;;;;11.20;25.95;99515.88;4375781;32;88079;-70
2022/03/24 06:05:44;;;;;;;11.73;6.35;;;;;;;11.56;25.54;99523.53;4365468;32;20158;-70
2022/03/24 06:08:11;;;;;;;11.77;6.28;;;;;;;11.67;25.34;99515.59;4378785;32;20090;-70
2022/03/24 06:10:39;;;;;;;11.75;7.35;;;;;;;11.71;25.44;99517.03;4378740;32;20113;-70
2022/03/24 06:13:06;;;;;;;19.65;7.07;;;;;;;11.67;25.48;99511.19;4378829;32;20087;-70
2022/03/24 06:15:34;;;;;;;15.48;6.65;;;;;;;11.56;25.61;99505.16;4378202;32;20129;-71
2022/03/24 06:18:01;;;;;;;40.92;8.90;;;;;;;11.45;25.93;99514.72;4378751;32;20095;-70
2022/03/24 06:20:28;;;;;;;10.15;6.55;;;;;;;11.36;26.02;99510.22;4378664;32;20090;-70
2022/03/24 06:22:55;;;;;;;12.02;7.20;;;;;;;11.63;25.89;99514.22;4378642;32;20122;-71
2022/03/24 06:25:22;;;;;;;12.30;7.20;;;;;;;11.73;25.72;99509.84;4378681;32;20087;-70
2022/03/24 06:27:50;;;;;;;14.87;6.75;;;;;;;11.65;26.02;99513.09;4378591;32;20102;-71
2022/03/24 06:30:17;;;;;;;13.20;6.47;;;;;;;11.95;25.36;99508.94;4378375;32;20153;-70
2022/03/24 06:32:44;;;;;;;9.57;5.75;;;;;;;12.01;25.24;99516.31;4364932;32;20078;-71
2022/03/24 06:35:11;;;;;;;14.93;6.10;;;;;;;11.97;25.15;99507.00;4378691;32;20095;-71
2022/03/24 06:41:09;;;;;;;11.40;6.32;;;;;;;12.11;25.15;99507.66;4378246;32;20164;-70
2022/03/24 06:43:37;;;;;;;16.62;6.53;;;;;;;12.11;25.12;99512.91;4377856;32;20149;-70
2022/03/24 06:46:06;;;;;;;11.12;6.68;;;;;;;12.13;24.81;99506.56;4364582;32;20111;-70
2022/03/24 06:48:34;;;;;;;13.95;6.95;;;;;;;12.15;25.10;99509.06;4378035;32;20166;-72
2022/03/24 06:51:01;;;;;;;14.82;6.20;;;;;;;12.33;25.01;99509.31;4378382;32;20086;-70
2022/03/24 06:53:28;;;;;;;12.15;6.30;;;;;;;12.16;24.97;99505.50;4380079;32;20075;-74
2022/03/24 06:55:55;;;;;;;12.98;6.10;;;;;;;12.05;25.51;99503.75;4380048;32;20119;-71
2022/03/24 06:58:23;;;;;;;14.35;7.50;;;;;;;12.00;25.38;99500.69;4379717;32;20251;-72
2022/03/24 07:04:21;;;;;;;11.45;6.57;;;;;;;12.44;25.21;99511.84;4379789;32;20214;-71
2022/03/24 07:10:20;;;;;;;13.62;6.15;;;;;;;12.34;24.63;99511.81;4379939;32;20243;-71
2022/03/24 07:16:17;;;;;;;11.98;6.00;;;;;;;12.39;24.80;99506.16;4379621;32;20140;-72
2022/03/24 07:18:45;;;;;;;8.55;5.47;;;;;;;12.77;24.25;99505.50;4379736;32;20087;-72
2022/03/24 07:21:13;;;;;;;11.85;5.85;;;;;;;12.71;24.19;99507.84;4379969;32;20098;-73
2022/03/24 07:23:41;;;;;;;10.90;6.15;;;;;;;12.76;24.05;99508.25;4379979;32;20102;-71
2022/03/24 07:26:09;;;;;;;12.90;6.85;;;;;;;12.75;24.28;99504.81;4379805;32;20106;-73
2022/03/24 07:32:08;;;;;;;16.98;7.25;;;;;;;13.24;24.28;99504.91;4379989;32;20140;-71
2022/03/24 07:38:07;;;;;;;13.27;7.07;;;;;;;13.43;23.71;99506.78;4379834;32;20125;-72
2022/03/24 07:44:06;;;;;;;19.23;8.10;;;;;;;13.47;23.34;99496.81;4379894;32;20518;-73
2022/03/24 07:50:07;;;;;;;15.85;7.22;;;;;;;13.80;23.75;99502.62;4379538;32;20425;-73
2022/03/24 07:52:35;;;;;;;13.20;7.65;;;;;;;14.13;22.82;99493.44;4379534;32;20255;-74
2022/03/24 07:58:33;;;;;;;14.27;6.95;;;;;;;14.32;22.71;99496.97;4379612;32;20218;-74
2022/03/24 08:01:01;;;;;;;15.70;7.30;;;;;;;14.38;23.00;99499.03;4379409;32;20165;-74
2022/03/24 08:03:28;;;;;;;13.65;7.80;;;;;;;14.38;22.57;99494.62;4378659;32;20198;-73
2022/03/24 08:09:26;;;;;;;11.82;7.03;;;;;;;14.38;22.76;99492.00;4379641;32;20168;-74
2022/03/24 08:11:53;;;;;;;13.60;6.55;;;;;;;14.66;22.26;99493.84;4379562;32;20087;-73
2022/03/24 08:14:21;;;;;;;16.02;7.30;;;;;;;14.70;22.74;99496.06;4379466;32;20512;-74
2022/03/24 08:16:48;;;;;;;14.00;7.50;;;;;;;14.87;22.47;99494.44;4379662;32;20095;-75
2022/03/24 08:19:16;;;;;;;21.02;7.57;;;;;;;14.92;22.67;99501.09;4379590;32;20112;-77
2022/03/24 08:21:43;;;;;;;13.10;8.00;;;;;;;14.66;22.60;99496.50;4379418;32;20105;-75
2022/03/24 08:27:40;;;;;;;15.07;7.03;;;;;;;15.11;22.77;99493.06;4379047;32;20157;-73
2022/03/24 08:30:08;;;;;;;32.55;8.20;;;;;;;15.19;22.55;99487.88;4379440;32;20091;-74
2022/03/24 08:32:35;;;;;;;16.95;7.18;;;;;;;15.40;22.25;99484.94;4379411;32;20113;-74
2022/03/24 08:35:02;;;;;;;16.00;8.48;;;;;;;15.05;22.15;99494.50;4379355;32;20102;-75
2022/03/24 08:41:00;;;;;;;13.45;7.53;;;;;;;15.41;22.95;99489.25;4379379;32;20144;-74
2022/03/24 08:43:27;;;;;;;23.48;8.82;;;;;;;15.52;22.96;99492.63;4379177;32;20162;-73
2022/03/24 08:45:54;;;;;;;17.75;8.55;;;;;;;15.57;23.08;99488.56;4379382;32;20087;-75
2022/03/24 08:51:39;;;;;;;20.80;8.90;;;;;;;15.56;23.54;99496.63;4379027;32;20109;-73
2022/03/24 08:54:08;;;;;;;11.80;7.05;;;;;;;15.76;23.51;99490.22;4379446;32;20102;-73
2022/03/24 09:00:12;;;;;;;23.20;8.00;;;;;;;16.05;22.72;99496.22;4377682;32;20113;-75
2022/03/24 09:06:10;;;;;;;15.10;6.47;;;;;;;16.05;22.18;99497.06;4379283;32;20117;-76
2022/03/24 09:08:37;;;;;;;16.48;8.15;;;;;;;16.49;21.19;99497.00;4379277;32;20078;-75
2022/03/24 09:11:04;;;;;;;17.15;7.90;;;;;;;16.61;21.73;99502.03;4379416;32;20121;-76
2022/03/24 09:13:31;;;;;;;13.32;7.18;;;;;;;16.37;21.18;99500.09;4379061;32;20152;-77
2022/03/24 09:15:59;;;;;;;16.40;7.72;;;;;;;16.25;21.67;99497.69;4379297;32;20628;-75
2022/03/24 09:18:26;;;;;;;13.85;6.55;;;;;;;16.42;21.11;99490.69;4379156;32;20090;-75
2022/03/24 09:20:53;;;;;;;12.70;6.55;;;;;;;16.97;20.70;99499.22;4379472;32;20406;-75
2022/03/24 09:23:22;;;;;;;12.77;7.53;;;;;;;17.07;19.76;99504.38;4379290;32;20148;-75
2022/03/24 09:25:49;;;;;;;10.35;6.68;;;;;;;17.05;20.01;99498.41;4379239;32;20090;-74
2022/03/24 09:31:47;;;;;;;12.55;6.87;;;;;;;17.16;19.21;99491.00;4379341;32;20582;-73
2022/03/24 09:37:45;;;;;;;11.95;7.03;;;;;;;17.25;19.14;99501.62;4379005;32;20105;-73
2022/03/24 09:40:13;;;;;;;18.55;5.62;;;;;;;17.71;19.26;99488.75;4378827;32;20177;-73
2022/03/24 09:42:41;;;;;;;18.17;6.57;;;;;;;17.17;18.62;99495.31;4378896;32;20099;-74
2022/03/24 09:48:41;;;;;;;12.32;5.62;;;;;;;17.65;18.99;99489.41;4378606;32;20471;-74
2022/03/24 09:54:15;;;;;;;11.43;7.37;;;;;;;17.63;18.54;99486.94;4378223;32;20121;-73
2022/03/24 10:00:13;;;;;;;17.30;8.13;;;;;;;17.49;19.35;99501.66;4378926;32;20170;-75
2022/03/24 10:02:41;;;;;;;14.85;7.55;;;;;;;17.63;19.60;99491.41;4378557;32;20106;-76
2022/03/24 10:08:48;;;;;;;18.35;8.15;;;;;;;17.89;19.02;99494.72;4378751;32;20102;-75
2022/03/24 10:11:16;;;;;;;15.65;7.47;;;;;;;17.79;19.54;99493.22;4378748;32;20199;-76
2022/03/24 10:17:13;;;;;;;21.00;8.25;;;;;;;18.43;19.09;99485.38;4378860;32;20157;-76
2022/03/24 10:19:56;;;;;;;18.33;7.57;;;;;;;17.99;18.99;99486.62;4378496;32;20571;-76
2022/03/24 10:22:24;;;;;;;11.40;7.82;;;;;;;18.16;18.91;99491.91;4378871;32;20432;-76
2022/03/24 10:28:24;;;;;;;14.65;7.10;;;;;;;18.06;19.27;99487.62;4378712;32;20113;-75
2022/03/24 10:34:35;;;;;;;17.65;7.55;;;;;;;18.39;18.66;99484.88;4378435;32;20158;-75
2022/03/24 10:40:35;;;;;;;13.38;8.82;;;;;;;18.62;19.29;99479.69;4378600;32;20186;-77
2022/03/24 10:43:21;;;;;;;18.42;8.10;;;;;;;18.40;19.14;99493.69;4378060;32;20087;-78
2022/03/24 10:45:48;;;;;;;12.98;7.57;;;;;;;18.31;19.08;99484.91;4378418;32;20105;-78
2022/03/24 10:48:21;;;;;;;13.70;7.72;;;;;;;18.59;19.30;99477.38;4378180;32;20117;-78
2022/03/24 10:50:48;;;;;;;20.10;8.75;;;;;;;18.96;18.45;99478.56;4378396;32;20102;-78
2022/03/24 10:53:16;;;;;;;15.65;7.95;;;;;;;18.57;18.95;99484.66;4378064;32;20101;-82
2022/03/24 10:55:44;;;;;;;17.12;8.82;;;;;;;18.58;18.59;99467.75;4378777;32;20363;-80
2022/03/24 10:58:17;;;;;;;15.73;8.50;;;;;;;18.85;18.58;99467.47;4378561;32;20221;-79
2022/03/24 11:00:46;;;;;;;15.07;7.60;;;;;;;18.75;18.26;99475.66;4378367;32;20095;-80
2022/03/24 11:06:48;;;;;;;13.23;7.97;;;;;;;18.44;18.78;99473.78;4378291;32;20105;-80
2022/03/24 11:09:25;;;;;;;13.48;7.72;;;;;;;18.65;18.51;99472.38;4377114;32;20106;-79
2022/03/24 11:12:22;;;;;;;11.90;7.57;;;;;;;18.38;18.65;99466.47;4376813;32;20129;-80
2022/03/24 11:14:51;;;;;;;15.98;7.68;;;;;;;19.00;18.00;99451.66;4375206;32;20090;-78
2022/03/24 11:20:49;;;;;;;12.40;7.20;;;;;;;18.66;18.60;99447.50;4378115;32;20125;-79
2022/03/24 11:26:48;;;;;;;17.85;8.57;;;;;;;18.88;18.28;99445.91;4377965;32;20171;-79
2022/03/24 11:29:16;;;;;;;11.12;7.32;;;;;;;19.15;18.28;99445.44;4377975;32;20149;-77
2022/03/24 11:31:45;;;;;;;11.52;7.53;;;;;;;19.39;17.83;99445.41;4377821;32;20158;-78
2022/03/24 11:37:42;;;;;;;11.75;8.07;;;;;;;19.14;17.90;99438.44;4379273;32;20494;-76
2022/03/24 11:40:15;;;;;;;11.85;7.28;;;;;;;19.41;18.23;99438.09;4379875;32;20475;-76
2022/03/24 11:46:09;;;;;;;10.85;7.78;;;;;;;19.45;17.37;99420.78;4379717;32;20152;-75
2022/03/24 11:52:07;;;;;;;10.95;6.30;;;;;;;19.40;17.27;99425.81;4379956;32;20451;-74
2022/03/24 11:54:36;;;;;;;15.68;7.20;;;;;;;19.09;16.85;99410.75;4379539;32;20146;-76
2022/03/24 11:57:21;;;;;;;12.18;8.20;;;;;;;19.40;17.64;99412.53;4379836;32;20416;-73
2022/03/24 11:59:49;;;;;;;14.45;8.38;;;;;;;19.45;17.81;99415.47;4379888;32;20147;-75
2022/03/24 12:05:49;;;;;;;13.02;7.70;;;;;;;19.38;16.80;99426.00;4379587;32;20165;-76
2022/03/24 12:11:47;;;;;;;9.65;5.78;;;;;;;19.78;16.45;99407.25;4379789;32;20233;-76
2022/03/24 12:14:20;;;;;;;12.35;6.45;;;;;;;19.90;16.16;99405.78;4379521;32;20109;-76
2022/03/24 12:16:49;;;;;;;9.73;6.62;;;;;;;19.96;16.68;99399.75;4379812;32;20094;-76
2022/03/24 12:19:32;;;;;;;13.75;7.22;;;;;;;19.58;17.45;99393.63;4379860;32;20082;-76
2022/03/24 12:25:30;;;;;;;12.48;6.82;;;;;;;19.58;17.29;99383.81;4379792;32;20102;-75
2022/03/24 12:31:29;;;;;;;8.38;5.93;;;;;;;20.07;16.99;99376.37;4379810;32;20167;-76
2022/03/24 12:37:27;;;;;;;14.52;5.90;;;;;;;19.71;16.04;99380.50;4379681;32;20102;-76
2022/03/24 12:43:28;;;;;;;11.73;5.60;;;;;;;19.49;16.50;99382.22;4379611;32;20129;-76
2022/03/24 12:49:26;;;;;;;11.95;6.35;;;;;;;19.97;16.87;99372.16;4378785;32;20129;-75
2022/03/24 12:58:37;;;;;;;14.65;6.50;;;;;;;20.15;17.41;99369.13;4379282;32;20508;-75
2022/03/24 13:04:34;;;;;;;11.93;7.12;;;;;;;20.27;17.09;99358.00;4379057;32;20519;-77
2022/03/24 13:10:33;;;;;;;13.02;6.35;;;;;;;20.32;16.47;99360.94;4379115;32;20109;-76
2022/03/24 13:16:22;;;;;;;11.55;5.30;;;;;;;20.06;16.71;99345.44;4379313;32;20157;-76
2022/03/24 13:22:23;;;;;;;7.45;5.30;;;;;;;20.61;16.57;99341.41;4379106;32;20105;-77
2022/03/24 13:25:10;;;;;;;8.27;5.07;;;;;;;20.74;16.16;99336.28;4378873;32;20145;-76
2022/03/24 13:27:40;;;;;;;10.25;5.05;;;;;;;20.64;16.12;99337.56;4379246;32;20079;-77
2022/03/24 13:30:09;;;;;;;8.38;5.22;;;;;;;20.55;16.13;99353.63;4379184;32;20094;-77
2022/03/24 13:36:06;;;;;;;9.95;5.18;;;;;;;20.20;16.25;99334.81;4379285;32;20432;-75
2022/03/24 13:42:08;;;;;;;7.75;5.20;;;;;;;20.48;15.66;99326.09;4379230;32;20112;-77
2022/03/24 13:48:11;;;;;;;9.15;5.18;;;;;;;20.38;15.55;99347.72;4379210;32;20101;-77
2022/03/24 13:54:19;;;;;;;9.07;5.82;;;;;;;20.37;16.03;99319.44;4378971;32;20148;-77
2022/03/24 14:00:39;;;;;;;7.68;4.75;;;;;;;20.54;15.73;99297.91;4377908;32;20254;-76
2022/03/24 14:06:37;;;;;;;9.45;4.90;;;;;;;20.66;15.25;99301.75;4379034;32;20113;-76
2022/03/24 14:12:50;;;;;;;6.80;5.20;;;;;;;20.64;15.04;99289.66;4378995;32;20140;-78
2022/03/24 14:15:21;;;;;;;7.18;5.05;;;;;;;20.37;15.44;99295.50;4379327;32;20139;-76
2022/03/24 14:18:16;;;;;;;21.40;6.10;;;;;;;20.20;15.30;99294.91;4379012;32;20083;-77
2022/03/24 14:20:45;;;;;;;8.20;5.20;;;;;;;20.41;15.76;99282.66;4378697;32;20075;-77
2022/03/24 14:23:35;;;;;;;9.65;5.32;;;;;;;20.72;15.34;99293.00;4378619;32;20105;-76
2022/03/24 14:26:10;;;;;;;12.48;5.55;;;;;;;20.72;15.57;99279.69;4378747;32;20090;-77
2022/03/24 14:28:42;;;;;;;9.63;4.47;;;;;;;20.62;15.94;99292.50;4379103;32;20109;-77
2022/03/24 14:34:41;;;;;;;9.95;5.55;;;;;;;20.53;15.73;99277.63;4378505;32;20281;-76
2022/03/24 14:37:15;;;;;;;8.35;5.00;;;;;;;20.47;15.66;99273.06;4378445;32;20129;-77
2022/03/24 14:39:50;;;;;;;8.05;4.85;;;;;;;20.53;15.90;99273.16;4378681;32;20109;-77
2022/03/24 14:42:18;;;;;;;9.98;5.70;;;;;;;20.51;15.93;99279.66;4378383;32;20091;-78
2022/03/24 14:48:15;;;;;;;14.65;5.45;;;;;;;20.39;16.65;99287.31;4378052;32;20413;-78